Time;durP1;ratioP1;P1;durP2;ratioP2;P2;SDS_P1;SDS_P2;PMS_P1;PMS_P2;Temp;Humidity;BMP_temperature;BMP_pressure;BME280_temperature;BME280_humidity;BME280_pressure;Samples;Min_cycle;Max_cycle;Signal;HPM_P1;HPM_P2
2023/04/06 00:01:48;;;;;;;77.80;39.43;;;-0.30;99.90;;;;;;2603670;54;20107;31
2023/04/06 00:04:24;;;;;;;64.75;33.60;;;-0.30;99.90;;;;;;2603555;54;20844;31
2023/04/06 00:06:58;;;;;;;;;;;-0.30;99.90;;;;;;2603931;54;20026;31
2023/04/06 00:09:38;;;;;;;60.53;29.70;;;-0.40;99.90;;;;;;2603601;54;19934;31
2023/04/06 00:12:14;;;;;;;75.67;37.87;;;-0.40;99.90;;;;;;2603645;54;20022;31
2023/04/06 00:14:52;;;;;;;77.50;38.85;;;-0.40;99.90;;;;;;2603663;54;20831;31
2023/04/06 00:17:27;;;;;;;;;;;-0.50;99.90;;;;;;2603842;54;20099;31
2023/04/06 00:20:02;;;;;;;69.60;33.90;;;-0.50;99.90;;;;;;2603673;54;19934;31
2023/04/06 00:22:39;;;;;;;72.05;35.10;;;-0.60;99.90;;;;;;2622051;47;19957;31
2023/04/06 00:25:18;;;;;;;63.95;32.95;;;-0.50;99.90;;;;;;2603690;54;20046;31
2023/04/06 00:27:53;;;;;;;69.70;37.25;;;-0.60;99.90;;;;;;2602911;54;20043;31
2023/04/06 00:30:30;;;;;;;80.45;39.50;;;-0.60;99.90;;;;;;2603523;54;20628;31
2023/04/06 00:33:06;;;;;;;68.70;39.20;;;-0.60;99.90;;;;;;2603675;54;20027;31
2023/04/06 00:35:40;;;;;;;62.80;35.30;;;-0.70;99.90;;;;;;2621981;46;20038;31
2023/04/06 00:38:16;;;;;;;67.90;39.27;;;-0.60;99.90;;;;;;2622314;46;20026;31
2023/04/06 00:40:55;;;;;;;64.13;36.90;;;-0.70;99.90;;;;;;2773346;31;20543;31
2023/04/06 00:43:32;;;;;;;65.95;36.47;;;-0.70;99.90;;;;;;2603447;54;20858;31
2023/04/06 00:46:09;;;;;;;62.50;34.65;;;-0.70;99.90;;;;;;2603774;54;20219;31
2023/04/06 00:48:46;;;;;;;72.13;38.35;;;-0.70;99.90;;;;;;2603425;54;20055;31
2023/04/06 00:51:22;;;;;;;70.03;38.03;;;-0.70;99.90;;;;;;2603657;54;20547;31
2023/04/06 00:53:58;;;;;;;60.75;32.90;;;-0.80;99.90;;;;;;2603432;54;20026;31
2023/04/06 00:56:37;;;;;;;62.37;36.03;;;-0.70;99.90;;;;;;2603178;54;20051;31
2023/04/06 00:59:11;;;;;;;60.87;34.60;;;-0.80;99.90;;;;;;2603317;54;20026;31
2023/04/06 01:01:48;;;;;;;68.07;37.50;;;-0.80;99.90;;;;;;2603654;54;20833;31
2023/04/06 01:04:42;;;;;;;71.95;39.15;;;-0.90;99.90;;;;;;2603580;54;20022;31
2023/04/06 01:07:26;;;;;;;62.13;34.47;;;-0.90;99.90;;;;;;2603628;54;20081;31
2023/04/06 01:10:26;;;;;;;58.80;34.60;;;-0.90;99.90;;;;;;2603499;54;20143;31
2023/04/06 01:13:18;;;;;;;58.40;36.55;;;-0.90;99.90;;;;;;2603466;54;20759;31
2023/04/06 01:16:02;;;;;;;57.75;34.08;;;-0.90;99.90;;;;;;2603606;54;20094;31
2023/04/06 01:18:47;;;;;;;52.15;32.20;;;-0.90;99.90;;;;;;2603312;54;20852;31
2023/04/06 01:21:31;;;;;;;51.80;32.13;;;-0.90;99.90;;;;;;2603654;54;20029;31
2023/04/06 01:24:24;;;;;;;54.88;29.05;;;-0.90;99.90;;;;;;2701872;39;20508;31
2023/04/06 01:27:20;;;;;;;59.75;34.58;;;-0.90;99.90;;;;;;2603399;54;20977;31
2023/04/06 01:30:11;;;;;;;68.78;35.90;;;-0.90;99.90;;;;;;2603334;54;20026;31
2023/04/06 01:32:53;;;;;;;61.55;37.00;;;-0.90;99.90;;;;;;2603455;54;20023;31
2023/04/06 01:35:50;;;;;;;;;;;-1.00;99.90;;;;;;2603621;54;20901;31
2023/04/06 01:38:28;;;;;;;59.20;35.33;;;-1.00;99.90;;;;;;2603520;54;20775;31
2023/04/06 01:41:06;;;;;;;57.10;32.85;;;-1.00;99.90;;;;;;2603367;54;20135;31
2023/04/06 01:43:55;;;;;;;61.15;35.67;;;-1.10;99.90;;;;;;2701767;39;21364;31
2023/04/06 01:46:34;;;;;;;59.95;34.50;;;-1.10;99.90;;;;;;2621468;46;20957;31
2023/04/06 01:49:12;;;;;;;59.63;33.40;;;-1.10;99.90;;;;;;2603362;54;20549;31
2023/04/06 01:51:54;;;;;;;49.22;29.40;;;-1.20;99.90;;;;;;2603358;54;20899;31
2023/04/06 01:54:28;;;;;;;58.38;33.17;;;-1.20;99.90;;;;;;2603355;54;20049;31
2023/04/06 01:57:25;;;;;;;53.70;28.70;;;-1.20;99.90;;;;;;2603393;54;20097;31
2023/04/06 02:00:07;;;;;;;69.82;38.72;;;-1.20;99.90;;;;;;2603400;54;20030;31
2023/04/06 02:02:51;;;;;;;69.82;38.28;;;-1.30;99.90;;;;;;2603279;54;20930;31
2023/04/06 02:05:37;;;;;;;64.05;34.90;;;-1.30;99.90;;;;;;2603195;54;20053;31
2023/04/06 02:08:24;;;;;;;68.63;34.33;;;-1.30;99.90;;;;;;2621633;46;20022;31
2023/04/06 02:10:59;;;;;;;77.87;41.43;;;-1.30;99.90;;;;;;2603465;54;20027;31
2023/04/06 02:13:43;;;;;;;60.15;34.47;;;-1.40;99.90;;;;;;2603110;54;20282;31
2023/04/06 02:16:19;;;;;;;79.90;39.25;;;-1.40;99.90;;;;;;2701586;39;21634;31
2023/04/06 02:18:57;;;;;;;66.90;34.55;;;-1.40;99.90;;;;;;2720139;39;20454;31
2023/04/06 02:21:32;;;;;;;72.07;36.33;;;-1.40;99.90;;;;;;2603160;54;20026;31
2023/04/06 02:24:10;;;;;;;66.72;39.22;;;-1.50;99.90;;;;;;2603251;54;20762;31
2023/04/06 02:26:45;;;;;;;;;;;-1.40;99.90;;;;;;2701140;39;21617;31
2023/04/06 02:29:22;;;;;;;72.03;39.45;;;-1.40;99.90;;;;;;2603364;54;22626;31
2023/04/06 02:31:59;;;;;;;75.20;40.45;;;-1.50;99.90;;;;;;2603048;54;20576;31
2023/04/06 02:34:36;;;;;;;65.60;35.85;;;-1.50;99.90;;;;;;2603156;54;20595;31
2023/04/06 02:37:12;;;;;;;62.47;35.30;;;-1.60;99.90;;;;;;2602988;54;20045;31
2023/04/06 02:39:47;;;;;;;71.85;41.95;;;-1.60;99.90;;;;;;2603184;54;20029;31
2023/04/06 02:42:25;;;;;;;69.60;39.63;;;-1.60;99.90;;;;;;2603017;54;20030;31
2023/04/06 02:45:04;;;;;;;66.60;38.22;;;-1.70;99.90;;;;;;2604265;54;20246;31
2023/04/06 02:47:45;;;;;;;74.80;41.05;;;-1.70;99.90;;;;;;2605001;54;20068;31
2023/04/06 02:50:23;;;;;;;63.65;34.70;;;-1.70;99.90;;;;;;2721809;39;21587;31
2023/04/06 02:53:08;;;;;;;71.68;35.90;;;-1.70;99.90;;;;;;2605024;54;20048;31
2023/04/06 02:55:45;;;;;;;66.65;37.53;;;-1.70;99.90;;;;;;2703748;38;21011;31
2023/04/06 02:58:22;;;;;;;63.92;37.10;;;-1.70;99.90;;;;;;2604977;54;20046;31
2023/04/06 03:01:05;;;;;;;63.87;35.93;;;-1.70;99.90;;;;;;2702670;39;20572;31
2023/04/06 03:03:42;;;;;;;70.67;37.83;;;-1.70;99.90;;;;;;2703484;39;20465;31
2023/04/06 03:06:30;;;;;;;63.60;35.33;;;-1.70;99.90;;;;;;2604966;54;20033;31
2023/04/06 03:09:14;;;;;;;67.97;37.25;;;-1.70;99.90;;;;;;2604860;54;20851;31
2023/04/06 03:11:51;;;;;;;61.20;34.97;;;-1.70;99.90;;;;;;2604683;54;20026;31
2023/04/06 03:14:30;;;;;;;59.03;32.88;;;-1.60;99.90;;;;;;2604863;54;20326;31
2023/04/06 03:17:05;;;;;;;58.67;34.25;;;-1.70;99.90;;;;;;2604738;54;20007;31
2023/04/06 03:19:43;;;;;;;61.95;35.30;;;-1.70;99.90;;;;;;2604645;54;20895;31
2023/04/06 03:22:20;;;;;;;57.88;33.70;;;-1.70;99.90;;;;;;2603992;54;20027;31
2023/04/06 03:24:58;;;;;;;65.22;34.65;;;-1.60;99.90;;;;;;2604703;54;20031;31
2023/04/06 03:27:40;;;;;;;53.45;30.50;;;-1.70;99.90;;;;;;2604809;54;20026;31
2023/04/06 03:30:20;;;;;;;54.70;29.27;;;-1.70;99.90;;;;;;2604807;54;20022;31
2023/04/06 03:32:55;;;;;;;59.83;31.90;;;-1.70;99.90;;;;;;2622925;46;20030;31
2023/04/06 03:35:37;;;;;;;46.22;26.73;;;-1.80;99.90;;;;;;2603830;54;20152;31
2023/04/06 03:38:12;;;;;;;47.55;28.25;;;-1.80;99.90;;;;;;2622995;46;20958;31
2023/04/06 03:40:49;;;;;;;49.70;27.80;;;-1.80;99.90;;;;;;2604658;54;20123;31
2023/04/06 03:43:29;;;;;;;56.50;31.48;;;-1.80;99.90;;;;;;2703161;39;20613;31
2023/04/06 03:46:05;;;;;;;46.67;27.98;;;-1.90;99.90;;;;;;2604458;54;21774;31
2023/04/06 03:48:41;;;;;;;50.75;29.40;;;-1.90;99.90;;;;;;2604453;54;20560;31
2023/04/06 03:51:26;;;;;;;49.75;28.98;;;-1.90;99.90;;;;;;2604812;54;20069;31
2023/04/06 03:54:01;;;;;;;43.75;25.05;;;-1.90;99.90;;;;;;2604602;54;20790;31
2023/04/06 03:56:36;;;;;;;47.13;27.60;;;-1.90;99.90;;;;;;2702258;39;20603;31
2023/04/06 03:59:12;;;;;;;50.47;27.00;;;-2.00;99.90;;;;;;2720767;39;21614;31
2023/04/06 04:01:47;;;;;;;46.65;27.95;;;-2.00;99.90;;;;;;2603145;54;21787;31
2023/04/06 04:04:22;;;;;;;39.47;22.80;;;-2.00;99.90;;;;;;2720661;39;20639;31
2023/04/06 04:07:01;;;;;;;39.63;23.40;;;-2.10;99.90;;;;;;2603627;54;20034;31
2023/04/06 04:09:39;;;;;;;50.80;29.25;;;-2.10;99.90;;;;;;2622253;46;20022;31
2023/04/06 04:12:16;;;;;;;46.20;28.05;;;-2.10;99.90;;;;;;2702372;39;20476;31
2023/04/06 04:14:51;;;;;;;52.10;29.00;;;-2.10;99.90;;;;;;2603871;54;20044;31
2023/04/06 04:17:28;;;;;;;48.30;28.15;;;-2.20;99.90;;;;;;2702227;39;21610;31
2023/04/06 04:20:04;;;;;;;41.25;23.50;;;-2.30;99.90;;;;;;2602976;54;20044;31
2023/04/06 04:22:41;;;;;;;53.65;28.00;;;-2.30;99.90;;;;;;2603065;54;20555;31
2023/04/06 04:25:17;;;;;;;50.50;27.47;;;-2.20;99.90;;;;;;2602721;54;20938;31
2023/04/06 04:27:56;;;;;;;47.05;26.10;;;-2.20;99.90;;;;;;2622015;46;20045;31
2023/04/06 04:30:32;;;;;;;41.35;23.38;;;-2.20;99.90;;;;;;2602823;54;20093;31
2023/04/06 04:33:08;;;;;;;;;;;-2.30;99.90;;;;;;2603918;54;20514;31
2023/04/06 04:35:44;;;;;;;50.92;27.42;;;-2.30;99.90;;;;;;2603284;54;20730;31
2023/04/06 04:38:27;;;;;;;47.45;27.45;;;-2.30;99.90;;;;;;2603521;54;20761;31
2023/04/06 04:41:07;;;;;;;44.10;23.33;;;-2.30;99.90;;;;;;2603537;54;21821;31
2023/04/06 04:43:46;;;;;;;51.47;30.90;;;-2.30;99.90;;;;;;2603687;54;20872;31
2023/04/06 04:46:26;;;;;;;53.25;29.15;;;-2.30;99.90;;;;;;2603450;54;20859;31
2023/04/06 04:49:02;;;;;;;59.03;31.38;;;-2.30;99.90;;;;;;2702141;39;21544;31
2023/04/06 04:51:40;;;;;;;57.30;32.40;;;-2.30;99.90;;;;;;2602682;54;20026;31
2023/04/06 04:54:23;;;;;;;64.00;32.53;;;-2.30;99.90;;;;;;2603462;54;21283;31
2023/04/06 04:57:01;;;;;;;59.20;33.75;;;-2.30;99.90;;;;;;2603385;54;21282;31
2023/04/06 04:59:47;;;;;;;54.78;31.17;;;-2.20;99.90;;;;;;2603470;54;20930;31
2023/04/06 05:02:29;;;;;;;65.15;34.95;;;-2.10;99.90;;;;;;2603664;54;20879;31
2023/04/06 05:05:28;;;;;;;62.55;35.58;;;-2.10;99.90;;;;;;2603390;54;20076;31
2023/04/06 05:08:03;;;;;;;61.88;33.95;;;-2.00;99.90;;;;;;2701838;39;20499;31
2023/04/06 05:10:52;;;;;;;55.60;32.05;;;-1.90;99.90;;;;;;2603425;54;20093;31
2023/04/06 05:13:29;;;;;;;70.57;38.50;;;-1.90;99.90;;;;;;2603590;54;20022;31
2023/04/06 05:16:06;;;;;;;55.65;30.60;;;-1.80;99.90;;;;;;2603570;54;20033;31
2023/04/06 05:18:42;;;;;;;54.47;31.77;;;-1.80;99.90;;;;;;2603541;54;19945;31
2023/04/06 05:21:20;;;;;;;58.70;33.95;;;-1.70;99.90;;;;;;2603273;54;21349;31
2023/04/06 05:24:05;;;;;;;49.70;27.80;;;-1.60;99.90;;;;;;2603352;54;20101;31
2023/04/06 05:26:44;;;;;;;56.05;31.15;;;-1.50;99.90;;;;;;2603465;54;20075;31
2023/04/06 05:29:28;;;;;;;62.50;35.67;;;-1.40;99.90;;;;;;2603452;54;20028;31
2023/04/06 05:32:06;;;;;;;68.00;39.60;;;-1.40;99.90;;;;;;2602710;54;20864;31
2023/04/06 05:34:43;;;;;;;75.87;42.37;;;-1.30;99.90;;;;;;2603374;54;20034;31
2023/04/06 05:37:19;;;;;;;81.20;46.70;;;-1.20;99.90;;;;;;2603269;54;20860;31
2023/04/06 05:39:55;;;;;;;91.35;51.28;;;-1.10;99.90;;;;;;2603544;54;20060;31
2023/04/06 05:42:42;;;;;;;92.32;48.25;;;-1.00;99.90;;;;;;2603376;54;20855;31
2023/04/06 05:45:21;;;;;;;103.35;52.88;;;-0.80;99.90;;;;;;2603313;54;20019;31
2023/04/06 05:48:03;;;;;;;111.77;58.33;;;-0.60;99.90;;;;;;2603220;54;20026;31
2023/04/06 05:50:40;;;;;;;108.60;54.90;;;-0.40;99.90;;;;;;2603296;54;20889;31
2023/04/06 05:53:20;;;;;;;106.80;52.05;;;0.00;99.90;;;;;;2603492;54;20022;31
2023/04/06 05:56:04;;;;;;;82.05;38.17;;;0.40;99.90;;;;;;2701684;39;21561;31
2023/04/06 05:58:43;;;;;;;76.10;36.58;;;1.00;99.90;;;;;;2603250;54;20038;31
2023/04/06 06:01:25;;;;;;;63.40;31.20;;;1.40;99.90;;;;;;2603316;54;20022;31
2023/04/06 06:04:03;;;;;;;53.97;30.40;;;1.90;99.90;;;;;;2603403;54;20919;31
2023/04/06 06:06:44;;;;;;;59.67;31.13;;;2.30;99.90;;;;;;2603178;54;20469;31
2023/04/06 06:09:25;;;;;;;57.15;29.00;;;2.50;99.90;;;;;;2603186;54;20767;31
2023/04/06 06:12:15;;;;;;;50.50;28.75;;;2.80;99.90;;;;;;2603335;54;20023;31
2023/04/06 06:14:54;;;;;;;52.75;27.90;;;3.10;99.90;;;;;;2603274;54;20026;31
2023/04/06 06:17:31;;;;;;;49.30;29.17;;;3.50;99.90;;;;;;2603216;54;20833;31
2023/04/06 06:20:10;;;;;;;43.10;25.63;;;3.80;99.90;;;;;;2601959;54;20156;31
2023/04/06 06:22:46;;;;;;;46.55;27.15;;;4.10;99.90;;;;;;2603131;54;20257;31
2023/04/06 06:25:26;;;;;;;40.35;25.25;;;4.30;99.90;;;;;;2603237;54;20786;31
2023/04/06 06:28:02;;;;;;;39.20;24.33;;;4.60;99.90;;;;;;2603144;54;20861;31
2023/04/06 06:30:42;;;;;;;42.28;25.60;;;4.80;99.90;;;;;;2602813;54;20033;31
2023/04/06 06:33:21;;;;;;;39.38;24.35;;;5.00;99.90;;;;;;2603201;54;20052;31
2023/04/06 06:36:01;;;;;;;37.20;23.80;;;5.30;99.90;;;;;;2602995;54;20030;31
2023/04/06 06:38:39;;;;;;;37.28;24.60;;;5.40;99.90;;;;;;2621373;46;20869;31
2023/04/06 06:41:14;;;;;;;39.85;24.20;;;5.70;99.90;;;;;;2603184;54;20022;31
2023/04/06 06:43:50;;;;;;;36.42;23.38;;;5.80;99.90;;;;;;2602760;54;20616;31
2023/04/06 06:46:28;;;;;;;;;;;6.00;99.90;;;;;;2720240;39;20428;31
2023/04/06 06:49:04;;;;;;;38.65;23.75;;;6.10;99.90;;;;;;2603118;54;19934;31
2023/04/06 06:51:39;;;;;;;36.97;23.75;;;6.20;99.90;;;;;;2603203;54;20086;31
2023/04/06 06:54:18;;;;;;;35.20;23.03;;;6.40;99.90;;;;;;2602219;54;20903;31
2023/04/06 06:56:55;;;;;;;34.45;23.20;;;6.70;99.90;;;;;;2603086;54;20867;31
2023/04/06 06:59:31;;;;;;;45.03;23.87;;;7.00;99.90;;;;;;2603156;54;20857;31
2023/04/06 07:02:15;;;;;;;36.90;22.30;;;7.30;99.90;;;;;;2603048;54;20826;31
2023/04/06 07:04:51;;;;;;;33.00;23.52;;;7.60;99.90;;;;;;2603218;54;20588;31
2023/04/06 07:07:28;;;;;;;35.95;21.88;;;7.80;99.90;;;;;;2602680;54;20053;31
2023/04/06 07:10:04;;;;;;;36.45;24.08;;;8.00;99.90;;;;;;2602901;54;20888;31
2023/04/06 07:12:40;;;;;;;36.65;23.08;;;8.20;99.90;;;;;;2602958;54;20026;31
2023/04/06 07:15:16;;;;;;;38.55;22.17;;;8.50;99.90;;;;;;2603088;54;20027;31
2023/04/06 07:18:00;;;;;;;;;;;8.70;99.90;;;;;;2621745;47;20034;31
2023/04/06 07:20:41;;;;;;;39.30;24.95;;;8.90;99.90;;;;;;2602829;54;19935;31
2023/04/06 07:23:20;;;;;;;32.75;22.25;;;9.00;99.90;;;;;;2603101;54;20947;31
2023/04/06 07:26:01;;;;;;;36.83;23.95;;;9.20;99.90;;;;;;2603148;54;20834;31
2023/04/06 07:28:37;;;;;;;32.40;21.80;;;9.30;99.90;;;;;;2602926;54;20027;31
2023/04/06 07:31:15;;;;;;;34.65;22.65;;;9.40;99.90;;;;;;2773909;31;21204;31
2023/04/06 07:33:57;;;;;;;31.45;21.42;;;9.60;99.90;;;;;;2604004;54;19961;31
2023/04/06 07:36:33;;;;;;;33.47;22.52;;;9.70;99.90;;;;;;2603926;54;20112;31
2023/04/06 07:39:12;;;;;;;34.58;21.08;;;9.90;99.90;;;;;;2603873;54;20571;31
2023/04/06 07:41:48;;;;;;;26.75;19.55;;;10.00;99.90;;;;;;2603995;54;20767;31
2023/04/06 07:44:24;;;;;;;29.20;19.08;;;10.30;99.90;;;;;;2603882;54;20138;31
2023/04/06 07:47:02;;;;;;;23.65;16.45;;;10.50;99.90;;;;;;2622176;46;20027;31
2023/04/06 07:49:42;;;;;;;23.58;15.75;;;10.60;99.90;;;;;;2604086;54;20026;31
2023/04/06 07:52:41;;;;;;;25.55;14.45;;;10.80;99.90;;;;;;2603783;54;20116;31
2023/04/06 07:55:16;;;;;;;18.20;11.40;;;11.00;99.90;;;;;;2603476;54;20928;31
2023/04/06 07:57:54;;;;;;;11.63;6.97;;;11.10;99.90;;;;;;2720834;39;20484;31
2023/04/06 08:00:33;;;;;;;20.08;13.65;;;11.20;98.50;;;;;;2603557;54;20022;31
2023/04/06 08:03:09;;;;;;;15.75;10.50;;;11.30;99.90;;;;;;2621896;46;20018;31
2023/04/06 08:05:51;;;;;;;19.40;12.10;;;11.30;99.50;;;;;;2603545;54;20622;31
2023/04/06 08:08:26;;;;;;;29.92;15.68;;;11.40;99.90;;;;;;2602991;54;20119;31
2023/04/06 08:11:03;;;;;;;24.80;15.40;;;11.30;99.20;;;;;;2603806;54;20030;31
2023/04/06 08:13:39;;;;;;;20.20;13.77;;;11.40;99.90;;;;;;2603598;54;20560;31
2023/04/06 08:16:16;;;;;;;22.92;15.15;;;11.60;98.00;;;;;;2603486;54;20675;31
2023/04/06 08:18:53;;;;;;;29.20;15.38;;;11.80;99.10;;;;;;2603656;54;20537;31
2023/04/06 08:21:33;;;;;;;18.90;12.45;;;12.00;98.90;;;;;;2603458;54;20933;31
2023/04/06 08:24:11;;;;;;;19.25;12.85;;;12.00;96.10;;;;;;2603573;54;20807;31
2023/04/06 08:26:51;;;;;;;17.00;10.55;;;12.10;95.10;;;;;;2702047;39;20476;31
2023/04/06 08:29:27;;;;;;;18.15;10.95;;;12.30;94.90;;;;;;2603570;54;20049;31
2023/04/06 08:32:04;;;;;;;18.42;12.05;;;12.40;95.30;;;;;;2603670;54;20152;31
2023/04/06 08:34:40;;;;;;;19.05;11.35;;;12.40;93.80;;;;;;2602904;54;20752;31
2023/04/06 08:37:21;;;;;;;16.45;10.60;;;12.50;93.40;;;;;;2603533;54;20077;31
2023/04/06 08:39:58;;;;;;;14.68;9.50;;;12.50;93.70;;;;;;2603511;54;20836;31
2023/04/06 08:42:39;;;;;;;12.82;8.75;;;12.70;92.80;;;;;;2603295;54;20597;31
2023/04/06 08:45:15;;;;;;;21.05;10.55;;;12.50;91.30;;;;;;2701832;39;20509;31
2023/04/06 08:47:51;;;;;;;15.00;9.00;;;12.40;92.00;;;;;;2621819;46;20107;31
2023/04/06 08:50:28;;;;;;;11.80;8.85;;;12.40;91.00;;;;;;2702309;39;20454;31
2023/04/06 08:53:08;;;;;;;14.18;8.48;;;12.40;89.20;;;;;;2701971;39;21450;31
2023/04/06 08:55:43;;;;;;;13.25;8.95;;;12.40;90.60;;;;;;2603474;54;20027;31
2023/04/06 08:58:21;;;;;;;14.88;10.35;;;12.60;93.10;;;;;;2603372;54;20072;31
2023/04/06 09:01:10;;;;;;;16.92;12.43;;;12.60;91.60;;;;;;2603667;54;20033;31
2023/04/06 09:03:47;;;;;;;14.23;8.18;;;12.80;90.60;;;;;;2716388;39;21690;31
2023/04/06 09:06:24;;;;;;;14.27;7.70;;;12.90;90.40;;;;;;2603656;54;20691;31
2023/04/06 09:09:04;;;;;;;12.03;8.27;;;12.70;89.80;;;;;;2603339;54;20930;31
2023/04/06 09:11:48;;;;;;;12.48;8.27;;;12.70;87.20;;;;;;2701892;39;20428;31
2023/04/06 09:14:38;;;;;;;11.20;7.80;;;12.80;87.70;;;;;;2701842;39;20572;31
2023/04/06 09:17:23;;;;;;;10.18;8.20;;;13.00;87.70;;;;;;2603115;54;20027;31
2023/04/06 09:20:00;;;;;;;10.88;7.60;;;12.90;86.10;;;;;;2603705;54;20030;31
2023/04/06 09:22:42;;;;;;;9.25;6.88;;;12.90;86.20;;;;;;2602713;54;20956;31
2023/04/06 09:25:26;;;;;;;9.35;6.82;;;13.00;88.80;;;;;;2604040;46;20069;31
2023/04/06 09:28:03;;;;;;;13.27;7.60;;;13.10;86.80;;;;;;2720178;39;21494;31
2023/04/06 09:30:39;;;;;;;10.73;6.73;;;13.20;85.50;;;;;;2621419;46;20843;31
2023/04/06 09:33:17;;;;;;;;;;;13.00;85.20;;;;;;2603761;54;20030;31
2023/04/06 09:35:53;;;;;;;13.80;7.40;;;12.80;84.90;;;;;;2603269;54;19935;31
2023/04/06 09:38:33;;;;;;;11.77;7.40;;;12.30;86.60;;;;;;2615530;46;20041;31
2023/04/06 09:41:12;;;;;;;13.15;7.10;;;12.10;85.40;;;;;;2602463;54;20041;31
2023/04/06 09:43:49;;;;;;;9.02;6.72;;;12.30;86.60;;;;;;2610346;46;20034;31
2023/04/06 09:46:26;;;;;;;10.43;7.20;;;12.20;86.20;;;;;;2603348;54;20096;31
2023/04/06 09:49:02;;;;;;;13.07;7.18;;;12.20;86.90;;;;;;2602656;54;22390;31
2023/04/06 09:51:40;;;;;;;11.50;7.68;;;12.20;84.10;;;;;;2602862;54;20993;31
2023/04/06 09:54:19;;;;;;;13.25;8.80;;;12.30;84.90;;;;;;2602224;54;20060;31
2023/04/06 09:57:04;;;;;;;10.85;7.28;;;12.40;86.80;;;;;;2622022;46;20053;31
2023/04/06 09:59:44;;;;;;;11.13;7.32;;;12.50;85.70;;;;;;2603348;54;20099;31
2023/04/06 10:02:24;;;;;;;10.95;7.70;;;12.40;85.10;;;;;;2621764;46;20022;31
2023/04/06 10:05:04;;;;;;;16.55;7.63;;;12.10;85.00;;;;;;2621836;46;20027;31
2023/04/06 10:07:42;;;;;;;9.43;6.47;;;11.90;86.00;;;;;;2603374;54;20022;31
2023/04/06 10:10:34;;;;;;;8.05;5.95;;;11.70;87.40;;;;;;2621889;46;20030;31
2023/04/06 10:13:15;;;;;;;10.25;6.15;;;11.50;84.60;;;;;;2603346;54;21005;31
2023/04/06 10:15:54;;;;;;;8.10;5.95;;;11.30;85.80;;;;;;2603435;54;20034;31
2023/04/06 10:18:32;;;;;;;9.30;5.25;;;11.30;82.40;;;;;;2621330;46;20085;31
2023/04/06 10:21:10;;;;;;;9.30;5.15;;;11.50;83.10;;;;;;2603177;54;20796;31
2023/04/06 10:23:48;;;;;;;9.60;4.75;;;11.60;86.20;;;;;;2621446;46;20131;31
2023/04/06 10:26:24;;;;;;;31.73;6.70;;;11.70;85.00;;;;;;2603205;54;19935;31
2023/04/06 10:29:06;;;;;;;7.47;5.50;;;11.80;86.00;;;;;;2603206;54;19939;31
2023/04/06 10:31:46;;;;;;;11.50;6.57;;;11.60;84.20;;;;;;2603212;54;20030;31
2023/04/06 10:34:21;;;;;;;10.43;5.95;;;11.60;85.70;;;;;;2621875;46;20026;31
2023/04/06 10:36:57;;;;;;;10.35;5.90;;;11.70;87.20;;;;;;2603424;54;20030;31
2023/04/06 10:39:34;;;;;;;7.70;5.63;;;11.80;86.10;;;;;;2603292;54;20034;31
2023/04/06 10:42:13;;;;;;;7.90;5.70;;;12.00;84.80;;;;;;2603323;54;20030;31
2023/04/06 10:44:54;;;;;;;7.97;6.00;;;12.10;83.00;;;;;;2602948;54;20820;31
2023/04/06 10:47:32;;;;;;;8.95;5.88;;;12.20;85.10;;;;;;2701945;39;21003;31
2023/04/06 10:52:45;;;;;;;9.57;6.65;;;12.40;87.80;;;;;;2621586;47;20030;31
2023/04/06 10:55:21;;;;;;;12.48;6.88;;;12.20;85.60;;;;;;2621261;47;20022;31
2023/04/06 10:57:56;;;;;;;10.20;6.82;;;11.90;85.70;;;;;;2791428;31;21698;31
2023/04/06 11:00:35;;;;;;;7.27;5.53;;;11.80;85.30;;;;;;2621376;47;20926;31
2023/04/06 11:03:24;;;;;;;8.30;5.90;;;11.80;87.40;;;;;;2602994;54;20019;31
2023/04/06 11:06:01;;;;;;;9.68;6.18;;;11.60;85.60;;;;;;2615889;47;20035;31
2023/04/06 11:08:37;;;;;;;7.28;5.75;;;11.70;86.70;;;;;;2622127;46;20033;31
2023/04/06 11:11:15;;;;;;;7.95;5.85;;;11.70;84.50;;;;;;2603954;54;20026;31
2023/04/06 11:13:53;;;;;;;12.10;6.55;;;11.70;85.30;;;;;;2604134;54;20065;31
2023/04/06 11:16:33;;;;;;;9.05;5.80;;;11.80;85.90;;;;;;2611147;46;20056;31
2023/04/06 11:19:12;;;;;;;7.30;5.35;;;11.80;85.20;;;;;;2603153;54;20825;31
2023/04/06 11:21:50;;;;;;;9.70;5.70;;;11.60;82.70;;;;;;2603917;54;20045;31
2023/04/06 11:24:27;;;;;;;9.48;5.97;;;11.50;85.00;;;;;;2603780;54;20049;31
2023/04/06 11:27:04;;;;;;;14.15;7.13;;;11.50;86.10;;;;;;2622133;46;20034;31
2023/04/06 11:29:40;;;;;;;10.07;6.80;;;11.40;83.70;;;;;;2603792;54;20075;31
2023/04/06 11:32:24;;;;;;;11.15;7.10;;;11.30;85.60;;;;;;2603103;54;21299;31
2023/04/06 11:35:02;;;;;;;11.10;7.60;;;11.20;87.50;;;;;;2603828;54;20912;31
2023/04/06 11:37:37;;;;;;;9.02;6.68;;;11.30;87.80;;;;;;2603841;54;20843;31
2023/04/06 11:40:14;;;;;;;9.02;7.25;;;11.30;87.70;;;;;;2773681;31;21745;31
2023/04/06 11:42:56;;;;;;;12.55;7.95;;;11.20;85.10;;;;;;2603823;54;20841;31
2023/04/06 11:45:32;;;;;;;13.18;7.10;;;11.20;86.80;;;;;;2603645;54;20817;31
2023/04/06 11:48:21;;;;;;;12.35;7.30;;;11.30;89.80;;;;;;2603524;54;20112;31
2023/04/06 11:51:03;;;;;;;12.10;6.70;;;11.30;88.50;;;;;;2603535;54;20853;31
2023/04/06 11:53:48;;;;;;;10.45;7.10;;;11.20;86.70;;;;;;2603829;54;20030;31
2023/04/06 11:56:28;;;;;;;13.73;7.47;;;11.20;85.10;;;;;;2622333;46;20056;31
2023/04/06 11:59:03;;;;;;;13.85;7.95;;;11.30;86.30;;;;;;2603696;54;21326;31
2023/04/06 12:01:48;;;;;;;10.95;7.47;;;11.20;86.90;;;;;;2603640;54;20136;31
2023/04/06 12:04:26;;;;;;;9.80;6.68;;;11.10;87.50;;;;;;2603898;54;20030;31
2023/04/06 12:07:03;;;;;;;10.55;7.25;;;11.20;87.50;;;;;;2603577;54;20033;31
2023/04/06 12:09:40;;;;;;;25.02;10.13;;;11.20;87.20;;;;;;2603606;54;20105;31
2023/04/06 12:12:17;;;;;;;40.97;20.20;;;11.30;90.80;;;;;;2603881;54;20034;31
2023/04/06 12:14:54;;;;;;;14.50;8.50;;;11.20;87.70;;;;;;2603820;54;20022;31
2023/04/06 12:17:32;;;;;;;10.73;7.85;;;11.00;86.10;;;;;;2603202;54;21609;31
2023/04/06 12:20:15;;;;;;;9.90;7.22;;;10.80;86.90;;;;;;2603645;54;20057;31
2023/04/06 12:23:00;;;;;;;20.20;10.40;;;10.70;85.70;;;;;;2622325;46;20031;31
2023/04/06 12:25:38;;;;;;;9.80;7.15;;;10.50;86.30;;;;;;2772689;31;21705;31
2023/04/06 12:28:16;;;;;;;10.00;6.88;;;10.40;87.70;;;;;;2602857;54;20034;31
2023/04/06 12:30:55;;;;;;;11.13;6.50;;;10.40;85.90;;;;;;2622013;46;20075;31
2023/04/06 12:33:31;;;;;;;8.85;6.05;;;10.40;86.30;;;;;;2603729;54;20744;31
2023/04/06 12:36:15;;;;;;;9.47;6.43;;;10.30;86.70;;;;;;2622193;46;20772;31
2023/04/06 12:38:51;;;;;;;10.15;6.70;;;10.20;86.00;;;;;;2603714;54;20026;31
2023/04/06 12:41:30;;;;;;;10.68;6.70;;;10.20;89.10;;;;;;2602820;54;20106;31
2023/04/06 12:44:07;;;;;;;10.55;6.38;;;10.20;88.20;;;;;;2622126;46;20100;31
2023/04/06 12:46:43;;;;;;;7.80;5.65;;;10.20;89.80;;;;;;2603706;54;20026;31
2023/04/06 12:49:19;;;;;;;;;;;10.20;87.30;;;;;;2622258;46;20037;31
2023/04/06 12:52:09;;;;;;;8.77;6.20;;;10.10;85.70;;;;;;2622182;46;19934;31
2023/04/06 12:54:44;;;;;;;20.25;13.48;;;10.10;86.90;;;;;;2603636;54;20906;31
2023/04/06 12:57:24;;;;;;;11.45;7.22;;;10.10;87.00;;;;;;2603607;54;20030;31
2023/04/06 12:59:59;;;;;;;9.85;6.97;;;10.00;87.90;;;;;;2603621;54;21879;31
2023/04/06 13:02:35;;;;;;;;;;;10.00;88.70;;;;;;2603962;54;20618;31
2023/04/06 13:05:21;;;;;;;9.55;5.15;;;10.00;90.60;;;;;;2603495;54;19942;31
2023/04/06 13:08:00;;;;;;;11.98;5.65;;;10.00;86.80;;;;;;2621911;46;20104;31
2023/04/06 13:10:36;;;;;;;8.10;5.00;;;9.90;87.90;;;;;;2603643;54;20034;31
2023/04/06 13:13:12;;;;;;;9.85;5.72;;;9.90;88.90;;;;;;2603434;54;20848;31
2023/04/06 13:15:50;;;;;;;8.80;5.50;;;9.80;88.50;;;;;;2603580;54;20089;31
2023/04/06 13:18:26;;;;;;;9.02;5.53;;;9.80;90.00;;;;;;2603453;54;20089;31
2023/04/06 13:21:00;;;;;;;;;;;9.80;88.70;;;;;;2603663;54;20026;31
2023/04/06 13:23:40;;;;;;;8.07;5.80;;;9.70;88.40;;;;;;2603703;54;21566;31
2023/04/06 13:26:16;;;;;;;7.75;5.93;;;9.80;88.70;;;;;;2702098;39;21503;31
2023/04/06 13:28:53;;;;;;;9.90;6.70;;;9.80;87.00;;;;;;2603350;54;20038;31
2023/04/06 13:31:28;;;;;;;9.98;6.03;;;9.80;88.40;;;;;;2603173;54;20950;31
2023/04/06 13:34:03;;;;;;;9.52;7.18;;;9.80;89.30;;;;;;2603419;54;20057;31
2023/04/06 13:36:41;;;;;;;9.63;7.00;;;9.80;89.90;;;;;;2603596;54;20030;31
2023/04/06 13:39:19;;;;;;;10.90;6.80;;;9.70;88.80;;;;;;2603495;54;20031;31
2023/04/06 13:41:56;;;;;;;12.25;6.75;;;9.50;88.90;;;;;;2602827;54;20022;31
2023/04/06 13:44:32;;;;;;;11.52;7.03;;;9.40;89.20;;;;;;2603297;54;21276;31
2023/04/06 13:47:07;;;;;;;;;;;9.30;88.90;;;;;;2603635;54;20034;31
2023/04/06 13:49:42;;;;;;;9.15;6.45;;;9.10;87.40;;;;;;2602839;54;20024;31
2023/04/06 13:52:18;;;;;;;10.45;7.47;;;9.00;88.10;;;;;;2603377;54;20144;31